sensor_id;sensor_type;location;lat;lon;timestamp;P1;P2;P0
64138;PMS5003;50435;43.700;-79.318;2024-02-28T00:00:51;17;16;
64138;PMS5003;50435;43.700;-79.318;2024-02-28T00:03:19;16;16;
64138;PMS5003;50435;43.700;-79.318;2024-02-28T00:05:46;17;16;
64138;PMS5003;50435;43.700;-79.318;2024-02-28T00:08:13;16;15;
64138;PMS5003;50435;43.700;-79.318;2024-02-28T00:10:40;20;20;
64138;PMS5003;50435;43.700;-79.318;2024-02-28T00:13:08;19;19;
64138;PMS5003;50435;43.700;-79.318;2024-02-28T00:15:35;21;17;
64138;PMS5003;50435;43.700;-79.318;2024-02-28T00:18:02;17;16;
64138;PMS5003;50435;43.700;-79.318;2024-02-28T00:20:30;16;15;
64138;PMS5003;50435;43.700;-79.318;2024-02-28T00:22:57;18;18;
64138;PMS5003;50435;43.700;-79.318;2024-02-28T00:25:25;20;18;
64138;PMS5003;50435;43.700;-79.318;2024-02-28T00:27:52;18;18;
64138;PMS5003;50435;43.700;-79.318;2024-02-28T00:30:20;18;17;
64138;PMS5003;50435;43.700;-79.318;2024-02-28T00:32:47;15;15;
64138;PMS5003;50435;43.700;-79.318;2024-02-28T00:35:14;18;18;
64138;PMS5003;50435;43.700;-79.318;2024-02-28T00:37:42;21;18;
64138;PMS5003;50435;43.700;-79.318;2024-02-28T00:40:10;15;14;
64138;PMS5003;50435;43.700;-79.318;2024-02-28T00:42:38;18;17;
64138;PMS5003;50435;43.700;-79.318;2024-02-28T00:45:07;17;17;
64138;PMS5003;50435;43.700;-79.318;2024-02-28T00:47:35;16;16;
64138;PMS5003;50435;43.700;-79.318;2024-02-28T00:50:03;17;16;
64138;PMS5003;50435;43.700;-79.318;2024-02-28T00:52:31;18;18;
64138;PMS5003;50435;43.700;-79.318;2024-02-28T00:54:59;18;17;
64138;PMS5003;50435;43.700;-79.318;2024-02-28T00:57:26;19;17;
64138;PMS5003;50435;43.700;-79.318;2024-02-28T00:59:54;22;19;
64138;PMS5003;50435;43.700;-79.318;2024-02-28T01:02:21;16;14;
64138;PMS5003;50435;43.700;-79.318;2024-02-28T01:04:49;17;17;
64138;PMS5003;50435;43.700;-79.318;2024-02-28T01:07:16;17;16;
64138;PMS5003;50435;43.700;-79.318;2024-02-28T01:09:44;16;15;
64138;PMS5003;50435;43.700;-79.318;2024-02-28T01:12:11;23;21;
64138;PMS5003;50435;43.700;-79.318;2024-02-28T01:14:39;17;17;
64138;PMS5003;50435;43.700;-79.318;2024-02-28T01:17:06;19;17;
64138;PMS5003;50435;43.700;-79.318;2024-02-28T01:19:34;20;19;
64138;PMS5003;50435;43.700;-79.318;2024-02-28T01:22:01;18;18;
64138;PMS5003;50435;43.700;-79.318;2024-02-28T01:24:29;18;18;
64138;PMS5003;50435;43.700;-79.318;2024-02-28T01:26:56;20;20;
64138;PMS5003;50435;43.700;-79.318;2024-02-28T01:29:24;18;16;
64138;PMS5003;50435;43.700;-79.318;2024-02-28T01:31:51;18;17;
64138;PMS5003;50435;43.700;-79.318;2024-02-28T01:34:19;16;16;
64138;PMS5003;50435;43.700;-79.318;2024-02-28T01:36:47;18;18;
64138;PMS5003;50435;43.700;-79.318;2024-02-28T01:39:14;19;18;
64138;PMS5003;50435;43.700;-79.318;2024-02-28T01:41:41;17;17;
64138;PMS5003;50435;43.700;-79.318;2024-02-28T01:44:16;21;20;
64138;PMS5003;50435;43.700;-79.318;2024-02-28T01:46:44;18;17;
64138;PMS5003;50435;43.700;-79.318;2024-02-28T01:49:12;18;17;
64138;PMS5003;50435;43.700;-79.318;2024-02-28T01:51:41;21;19;
64138;PMS5003;50435;43.700;-79.318;2024-02-28T01:54:10;17;16;
64138;PMS5003;50435;43.700;-79.318;2024-02-28T01:56:38;19;19;
64138;PMS5003;50435;43.700;-79.318;2024-02-28T01:59:06;21;19;
64138;PMS5003;50435;43.700;-79.318;2024-02-28T02:01:36;21;19;
64138;PMS5003;50435;43.700;-79.318;2024-02-28T02:04:04;22;21;
64138;PMS5003;50435;43.700;-79.318;2024-02-28T02:06:31;20;19;
64138;PMS5003;50435;43.700;-79.318;2024-02-28T02:08:59;23;20;
64138;PMS5003;50435;43.700;-79.318;2024-02-28T02:11:28;19;19;
64138;PMS5003;50435;43.700;-79.318;2024-02-28T02:13:55;16;16;
64138;PMS5003;50435;43.700;-79.318;2024-02-28T02:16:22;21;20;
64138;PMS5003;50435;43.700;-79.318;2024-02-28T02:18:50;22;21;
64138;PMS5003;50435;43.700;-79.318;2024-02-28T02:21:18;20;17;
64138;PMS5003;50435;43.700;-79.318;2024-02-28T02:23:47;18;17;
64138;PMS5003;50435;43.700;-79.318;2024-02-28T02:26:14;25;22;
64138;PMS5003;50435;43.700;-79.318;2024-02-28T02:28:41;20;18;
64138;PMS5003;50435;43.700;-79.318;2024-02-28T02:31:10;21;21;
64138;PMS5003;50435;43.700;-79.318;2024-02-28T02:33:37;19;18;
64138;PMS5003;50435;43.700;-79.318;2024-02-28T02:36:05;19;18;
64138;PMS5003;50435;43.700;-79.318;2024-02-28T02:38:33;24;24;
64138;PMS5003;50435;43.700;-79.318;2024-02-28T02:41:01;24;20;
64138;PMS5003;50435;43.700;-79.318;2024-02-28T02:43:29;23;21;
64138;PMS5003;50435;43.700;-79.318;2024-02-28T02:45:56;24;21;
64138;PMS5003;50435;43.700;-79.318;2024-02-28T02:48:24;24;21;
64138;PMS5003;50435;43.700;-79.318;2024-02-28T02:50:51;22;21;
64138;PMS5003;50435;43.700;-79.318;2024-02-28T02:53:18;21;21;
64138;PMS5003;50435;43.700;-79.318;2024-02-28T02:55:45;20;19;
64138;PMS5003;50435;43.700;-79.318;2024-02-28T02:58:13;22;20;
64138;PMS5003;50435;43.700;-79.318;2024-02-28T03:00:41;19;19;
64138;PMS5003;50435;43.700;-79.318;2024-02-28T03:03:08;23;22;
64138;PMS5003;50435;43.700;-79.318;2024-02-28T03:05:36;18;18;
64138;PMS5003;50435;43.700;-79.318;2024-02-28T03:08:03;27;24;
64138;PMS5003;50435;43.700;-79.318;2024-02-28T03:10:31;21;19;
64138;PMS5003;50435;43.700;-79.318;2024-02-28T03:12:58;20;20;
64138;PMS5003;50435;43.700;-79.318;2024-02-28T03:15:26;27;23;
64138;PMS5003;50435;43.700;-79.318;2024-02-28T03:17:53;20;20;
64138;PMS5003;50435;43.700;-79.318;2024-02-28T03:20:20;21;19;
64138;PMS5003;50435;43.700;-79.318;2024-02-28T03:22:48;19;19;
64138;PMS5003;50435;43.700;-79.318;2024-02-28T03:25:16;28;25;
64138;PMS5003;50435;43.700;-79.318;2024-02-28T03:27:43;28;23;
64138;PMS5003;50435;43.700;-79.318;2024-02-28T03:30:11;18;17;
64138;PMS5003;50435;43.700;-79.318;2024-02-28T03:32:38;21;21;
64138;PMS5003;50435;43.700;-79.318;2024-02-28T03:35:06;26;23;
64138;PMS5003;50435;43.700;-79.318;2024-02-28T03:37:33;21;20;
64138;PMS5003;50435;43.700;-79.318;2024-02-28T03:40:01;23;20;
64138;PMS5003;50435;43.700;-79.318;2024-02-28T03:42:28;23;20;
64138;PMS5003;50435;43.700;-79.318;2024-02-28T03:44:56;23;22;
64138;PMS5003;50435;43.700;-79.318;2024-02-28T03:47:23;27;23;
64138;PMS5003;50435;43.700;-79.318;2024-02-28T03:49:51;25;24;
64138;PMS5003;50435;43.700;-79.318;2024-02-28T03:52:18;25;24;
64138;PMS5003;50435;43.700;-79.318;2024-02-28T03:54:45;25;22;
64138;PMS5003;50435;43.700;-79.318;2024-02-28T03:57:13;26;24;
64138;PMS5003;50435;43.700;-79.318;2024-02-28T03:59:40;21;21;
64138;PMS5003;50435;43.700;-79.318;2024-02-28T04:02:07;23;23;
64138;PMS5003;50435;43.700;-79.318;2024-02-28T04:04:35;24;22;
64138;PMS5003;50435;43.700;-79.318;2024-02-28T04:07:03;25;22;
64138;PMS5003;50435;43.700;-79.318;2024-02-28T04:09:31;24;24;
64138;PMS5003;50435;43.700;-79.318;2024-02-28T04:11:58;25;25;
64138;PMS5003;50435;43.700;-79.318;2024-02-28T04:14:25;26;26;
64138;PMS5003;50435;43.700;-79.318;2024-02-28T04:16:53;29;28;
64138;PMS5003;50435;43.700;-79.318;2024-02-28T04:19:21;31;29;
64138;PMS5003;50435;43.700;-79.318;2024-02-28T04:21:48;28;27;
64138;PMS5003;50435;43.700;-79.318;2024-02-28T04:24:15;29;28;
64138;PMS5003;50435;43.700;-79.318;2024-02-28T04:26:42;30;26;
64138;PMS5003;50435;43.700;-79.318;2024-02-28T04:29:10;32;30;
64138;PMS5003;50435;43.700;-79.318;2024-02-28T04:31:37;30;27;
64138;PMS5003;50435;43.700;-79.318;2024-02-28T04:34:05;27;26;
64138;PMS5003;50435;43.700;-79.318;2024-02-28T04:36:32;27;24;
64138;PMS5003;50435;43.700;-79.318;2024-02-28T04:38:59;28;27;
64138;PMS5003;50435;43.700;-79.318;2024-02-28T04:41:27;29;28;
64138;PMS5003;50435;43.700;-79.318;2024-02-28T04:43:55;28;26;
64138;PMS5003;50435;43.700;-79.318;2024-02-28T04:46:22;33;30;
64138;PMS5003;50435;43.700;-79.318;2024-02-28T04:48:50;27;26;
64138;PMS5003;50435;43.700;-79.318;2024-02-28T04:51:18;28;28;
64138;PMS5003;50435;43.700;-79.318;2024-02-28T04:53:45;28;28;
64138;PMS5003;50435;43.700;-79.318;2024-02-28T04:56:13;27;27;
64138;PMS5003;50435;43.700;-79.318;2024-02-28T04:58:41;29;27;
64138;PMS5003;50435;43.700;-79.318;2024-02-28T05:01:08;32;28;
64138;PMS5003;50435;43.700;-79.318;2024-02-28T05:03:36;31;29;
64138;PMS5003;50435;43.700;-79.318;2024-02-28T05:06:04;30;27;
64138;PMS5003;50435;43.700;-79.318;2024-02-28T05:08:31;27;27;
64138;PMS5003;50435;43.700;-79.318;2024-02-28T05:10:58;30;29;
64138;PMS5003;50435;43.700;-79.318;2024-02-28T05:13:26;27;27;
64138;PMS5003;50435;43.700;-79.318;2024-02-28T05:15:53;28;28;
64138;PMS5003;50435;43.700;-79.318;2024-02-28T05:18:21;30;28;
64138;PMS5003;50435;43.700;-79.318;2024-02-28T05:20:48;26;26;
64138;PMS5003;50435;43.700;-79.318;2024-02-28T05:23:16;26;25;
64138;PMS5003;50435;43.700;-79.318;2024-02-28T05:25:43;32;28;
64138;PMS5003;50435;43.700;-79.318;2024-02-28T05:28:12;29;27;
64138;PMS5003;50435;43.700;-79.318;2024-02-28T05:30:39;27;27;
64138;PMS5003;50435;43.700;-79.318;2024-02-28T05:33:07;31;29;
64138;PMS5003;50435;43.700;-79.318;2024-02-28T05:35:34;31;29;
64138;PMS5003;50435;43.700;-79.318;2024-02-28T05:38:01;30;30;
64138;PMS5003;50435;43.700;-79.318;2024-02-28T05:40:28;34;31;
64138;PMS5003;50435;43.700;-79.318;2024-02-28T05:42:56;31;30;
64138;PMS5003;50435;43.700;-79.318;2024-02-28T05:45:23;34;32;
64138;PMS5003;50435;43.700;-79.318;2024-02-28T05:47:51;30;28;
64138;PMS5003;50435;43.700;-79.318;2024-02-28T05:50:18;31;29;
64138;PMS5003;50435;43.700;-79.318;2024-02-28T05:52:46;27;27;
64138;PMS5003;50435;43.700;-79.318;2024-02-28T05:55:13;28;27;
64138;PMS5003;50435;43.700;-79.318;2024-02-28T05:57:41;28;28;
64138;PMS5003;50435;43.700;-79.318;2024-02-28T06:00:09;29;27;
64138;PMS5003;50435;43.700;-79.318;2024-02-28T06:02:37;33;29;
64138;PMS5003;50435;43.700;-79.318;2024-02-28T06:05:05;31;29;
64138;PMS5003;50435;43.700;-79.318;2024-02-28T06:07:34;33;29;
64138;PMS5003;50435;43.700;-79.318;2024-02-28T06:10:01;28;28;
64138;PMS5003;50435;43.700;-79.318;2024-02-28T06:12:28;30;26;
64138;PMS5003;50435;43.700;-79.318;2024-02-28T06:14:56;31;29;
64138;PMS5003;50435;43.700;-79.318;2024-02-28T06:17:23;26;26;
64138;PMS5003;50435;43.700;-79.318;2024-02-28T06:19:50;28;26;
64138;PMS5003;50435;43.700;-79.318;2024-02-28T06:22:18;32;30;
64138;PMS5003;50435;43.700;-79.318;2024-02-28T06:24:45;31;31;
64138;PMS5003;50435;43.700;-79.318;2024-02-28T06:27:13;26;26;
64138;PMS5003;50435;43.700;-79.318;2024-02-28T06:29:40;28;26;
64138;PMS5003;50435;43.700;-79.318;2024-02-28T06:32:08;33;31;
64138;PMS5003;50435;43.700;-79.318;2024-02-28T06:34:35;33;28;
64138;PMS5003;50435;43.700;-79.318;2024-02-28T06:37:03;29;27;
64138;PMS5003;50435;43.700;-79.318;2024-02-28T06:39:30;30;29;
64138;PMS5003;50435;43.700;-79.318;2024-02-28T06:41:57;26;25;
64138;PMS5003;50435;43.700;-79.318;2024-02-28T06:44:25;34;32;
64138;PMS5003;50435;43.700;-79.318;2024-02-28T06:46:53;34;30;
64138;PMS5003;50435;43.700;-79.318;2024-02-28T06:49:21;31;30;
64138;PMS5003;50435;43.700;-79.318;2024-02-28T06:51:48;28;27;
64138;PMS5003;50435;43.700;-79.318;2024-02-28T06:54:15;33;32;
64138;PMS5003;50435;43.700;-79.318;2024-02-28T06:56:43;32;31;
64138;PMS5003;50435;43.700;-79.318;2024-02-28T06:59:10;31;28;
64138;PMS5003;50435;43.700;-79.318;2024-02-28T07:01:38;33;32;
64138;PMS5003;50435;43.700;-79.318;2024-02-28T07:04:06;27;27;
64138;PMS5003;50435;43.700;-79.318;2024-02-28T07:06:33;37;34;
64138;PMS5003;50435;43.700;-79.318;2024-02-28T07:09:01;33;32;
64138;PMS5003;50435;43.700;-79.318;2024-02-28T07:11:29;37;31;
64138;PMS5003;50435;43.700;-79.318;2024-02-28T07:13:57;32;31;
64138;PMS5003;50435;43.700;-79.318;2024-02-28T07:16:24;39;34;
64138;PMS5003;50435;43.700;-79.318;2024-02-28T07:18:52;33;33;
64138;PMS5003;50435;43.700;-79.318;2024-02-28T07:21:20;37;37;
64138;PMS5003;50435;43.700;-79.318;2024-02-28T07:23:47;35;35;
64138;PMS5003;50435;43.700;-79.318;2024-02-28T07:26:15;38;34;
64138;PMS5003;50435;43.700;-79.318;2024-02-28T07:28:43;35;34;
64138;PMS5003;50435;43.700;-79.318;2024-02-28T07:31:14;35;33;
64138;PMS5003;50435;43.700;-79.318;2024-02-28T07:33:41;40;38;
64138;PMS5003;50435;43.700;-79.318;2024-02-28T07:36:08;41;35;
64138;PMS5003;50435;43.700;-79.318;2024-02-28T07:38:36;42;38;
64138;PMS5003;50435;43.700;-79.318;2024-02-28T07:41:04;33;32;
64138;PMS5003;50435;43.700;-79.318;2024-02-28T07:43:31;36;34;
64138;PMS5003;50435;43.700;-79.318;2024-02-28T07:45:58;33;33;
64138;PMS5003;50435;43.700;-79.318;2024-02-28T07:48:26;36;35;
64138;PMS5003;50435;43.700;-79.318;2024-02-28T07:50:54;38;34;
64138;PMS5003;50435;43.700;-79.318;2024-02-28T07:53:21;32;30;
64138;PMS5003;50435;43.700;-79.318;2024-02-28T07:55:48;39;36;
64138;PMS5003;50435;43.700;-79.318;2024-02-28T07:58:16;31;31;
64138;PMS5003;50435;43.700;-79.318;2024-02-28T08:00:44;36;34;
64138;PMS5003;50435;43.700;-79.318;2024-02-28T08:03:11;34;33;
64138;PMS5003;50435;43.700;-79.318;2024-02-28T08:05:38;34;32;
64138;PMS5003;50435;43.700;-79.318;2024-02-28T08:08:06;34;31;
64138;PMS5003;50435;43.700;-79.318;2024-02-28T08:10:34;34;32;
64138;PMS5003;50435;43.700;-79.318;2024-02-28T08:13:01;31;29;
64138;PMS5003;50435;43.700;-79.318;2024-02-28T08:15:29;34;30;
64138;PMS5003;50435;43.700;-79.318;2024-02-28T08:17:58;36;34;
64138;PMS5003;50435;43.700;-79.318;2024-02-28T08:20:25;32;32;
64138;PMS5003;50435;43.700;-79.318;2024-02-28T08:22:52;35;31;
64138;PMS5003;50435;43.700;-79.318;2024-02-28T08:25:20;37;33;
64138;PMS5003;50435;43.700;-79.318;2024-02-28T08:27:48;39;35;
64138;PMS5003;50435;43.700;-79.318;2024-02-28T08:30:15;32;31;
64138;PMS5003;50435;43.700;-79.318;2024-02-28T08:32:43;33;31;
64138;PMS5003;50435;43.700;-79.318;2024-02-28T08:35:11;31;29;
64138;PMS5003;50435;43.700;-79.318;2024-02-28T08:37:38;41;36;
64138;PMS5003;50435;43.700;-79.318;2024-02-28T08:40:06;35;33;
64138;PMS5003;50435;43.700;-79.318;2024-02-28T08:42:34;33;30;
64138;PMS5003;50435;43.700;-79.318;2024-02-28T08:45:01;31;28;
64138;PMS5003;50435;43.700;-79.318;2024-02-28T08:47:29;28;28;
64138;PMS5003;50435;43.700;-79.318;2024-02-28T08:49:56;34;32;
64138;PMS5003;50435;43.700;-79.318;2024-02-28T08:52:24;34;28;
64138;PMS5003;50435;43.700;-79.318;2024-02-28T08:54:51;25;24;
64138;PMS5003;50435;43.700;-79.318;2024-02-28T08:57:19;26;26;
64138;PMS5003;50435;43.700;-79.318;2024-02-28T08:59:46;29;25;
64138;PMS5003;50435;43.700;-79.318;2024-02-28T09:02:14;30;28;
64138;PMS5003;50435;43.700;-79.318;2024-02-28T09:04:41;24;22;
64138;PMS5003;50435;43.700;-79.318;2024-02-28T09:07:08;30;26;
64138;PMS5003;50435;43.700;-79.318;2024-02-28T09:09:40;23;22;
64138;PMS5003;50435;43.700;-79.318;2024-02-28T09:12:08;23;21;
64138;PMS5003;50435;43.700;-79.318;2024-02-28T09:14:35;22;19;
64138;PMS5003;50435;43.700;-79.318;2024-02-28T09:17:03;23;23;
64138;PMS5003;50435;43.700;-79.318;2024-02-28T09:19:31;22;20;
64138;PMS5003;50435;43.700;-79.318;2024-02-28T09:21:59;21;21;
64138;PMS5003;50435;43.700;-79.318;2024-02-28T09:24:27;22;21;
64138;PMS5003;50435;43.700;-79.318;2024-02-28T09:26:54;20;18;
64138;PMS5003;50435;43.700;-79.318;2024-02-28T09:29:22;23;21;
64138;PMS5003;50435;43.700;-79.318;2024-02-28T09:31:49;17;17;
64138;PMS5003;50435;43.700;-79.318;2024-02-28T09:34:17;14;14;
64138;PMS5003;50435;43.700;-79.318;2024-02-28T09:36:44;19;18;
64138;PMS5003;50435;43.700;-79.318;2024-02-28T09:39:12;17;17;
64138;PMS5003;50435;43.700;-79.318;2024-02-28T09:41:39;17;15;
64138;PMS5003;50435;43.700;-79.318;2024-02-28T09:44:08;15;15;
64138;PMS5003;50435;43.700;-79.318;2024-02-28T09:46:36;15;15;
64138;PMS5003;50435;43.700;-79.318;2024-02-28T09:49:04;15;14;
64138;PMS5003;50435;43.700;-79.318;2024-02-28T09:51:32;17;16;
64138;PMS5003;50435;43.700;-79.318;2024-02-28T09:54:01;15;15;
64138;PMS5003;50435;43.700;-79.318;2024-02-28T09:56:28;14;14;
64138;PMS5003;50435;43.700;-79.318;2024-02-28T09:58:56;15;15;
64138;PMS5003;50435;43.700;-79.318;2024-02-28T10:01:25;15;14;
64138;PMS5003;50435;43.700;-79.318;2024-02-28T10:03:53;13;13;
64138;PMS5003;50435;43.700;-79.318;2024-02-28T10:06:21;13;12;
64138;PMS5003;50435;43.700;-79.318;2024-02-28T10:08:49;10;10;
64138;PMS5003;50435;43.700;-79.318;2024-02-28T10:11:18;13;12;
64138;PMS5003;50435;43.700;-79.318;2024-02-28T10:13:46;19;18;
64138;PMS5003;50435;43.700;-79.318;2024-02-28T10:16:13;12;10;
64138;PMS5003;50435;43.700;-79.318;2024-02-28T10:18:42;13;13;
64138;PMS5003;50435;43.700;-79.318;2024-02-28T10:21:09;17;12;
64138;PMS5003;50435;43.700;-79.318;2024-02-28T10:23:37;13;13;
64138;PMS5003;50435;43.700;-79.318;2024-02-28T10:26:08;11;11;
64138;PMS5003;50435;43.700;-79.318;2024-02-28T10:28:36;10;10;
64138;PMS5003;50435;43.700;-79.318;2024-02-28T10:31:04;9;9;
64138;PMS5003;50435;43.700;-79.318;2024-02-28T10:33:32;11;11;
64138;PMS5003;50435;43.700;-79.318;2024-02-28T10:35:59;17;17;
64138;PMS5003;50435;43.700;-79.318;2024-02-28T10:38:27;15;13;
64138;PMS5003;50435;43.700;-79.318;2024-02-28T10:40:55;14;14;
64138;PMS5003;50435;43.700;-79.318;2024-02-28T10:43:23;16;16;
64138;PMS5003;50435;43.700;-79.318;2024-02-28T10:45:54;15;15;
64138;PMS5003;50435;43.700;-79.318;2024-02-28T10:48:24;18;15;
64138;PMS5003;50435;43.700;-79.318;2024-02-28T10:50:52;20;18;
64138;PMS5003;50435;43.700;-79.318;2024-02-28T10:53:21;13;12;
64138;PMS5003;50435;43.700;-79.318;2024-02-28T10:55:54;15;14;
64138;PMS5003;50435;43.700;-79.318;2024-02-28T10:58:29;17;15;
64138;PMS5003;50435;43.700;-79.318;2024-02-28T11:01:02;18;17;
64138;PMS5003;50435;43.700;-79.318;2024-02-28T11:03:30;18;18;
64138;PMS5003;50435;43.700;-79.318;2024-02-28T11:05:58;21;21;
64138;PMS5003;50435;43.700;-79.318;2024-02-28T11:08:26;24;20;
64138;PMS5003;50435;43.700;-79.318;2024-02-28T11:10:55;20;18;
64138;PMS5003;50435;43.700;-79.318;2024-02-28T11:13:23;20;19;
64138;PMS5003;50435;43.700;-79.318;2024-02-28T11:15:52;22;20;
64138;PMS5003;50435;43.700;-79.318;2024-02-28T11:18:20;20;18;
64138;PMS5003;50435;43.700;-79.318;2024-02-28T11:20:48;22;19;
64138;PMS5003;50435;43.700;-79.318;2024-02-28T11:23:17;21;18;
64138;PMS5003;50435;43.700;-79.318;2024-02-28T11:25:44;20;20;
64138;PMS5003;50435;43.700;-79.318;2024-02-28T11:28:12;19;19;
64138;PMS5003;50435;43.700;-79.318;2024-02-28T11:30:40;22;20;
64138;PMS5003;50435;43.700;-79.318;2024-02-28T11:33:08;24;21;
64138;PMS5003;50435;43.700;-79.318;2024-02-28T11:35:36;24;23;
64138;PMS5003;50435;43.700;-79.318;2024-02-28T11:38:06;19;19;
64138;PMS5003;50435;43.700;-79.318;2024-02-28T11:40:33;23;22;
64138;PMS5003;50435;43.700;-79.318;2024-02-28T11:43:01;23;21;
64138;PMS5003;50435;43.700;-79.318;2024-02-28T11:45:28;22;22;
64138;PMS5003;50435;43.700;-79.318;2024-02-28T11:47:55;21;20;
64138;PMS5003;50435;43.700;-79.318;2024-02-28T11:50:23;20;20;
64138;PMS5003;50435;43.700;-79.318;2024-02-28T11:52:50;22;21;
64138;PMS5003;50435;43.700;-79.318;2024-02-28T11:55:17;23;23;
64138;PMS5003;50435;43.700;-79.318;2024-02-28T11:57:45;24;23;
64138;PMS5003;50435;43.700;-79.318;2024-02-28T12:00:13;27;22;
64138;PMS5003;50435;43.700;-79.318;2024-02-28T12:02:41;22;22;
64138;PMS5003;50435;43.700;-79.318;2024-02-28T12:05:08;21;20;
64138;PMS5003;50435;43.700;-79.318;2024-02-28T12:07:36;27;26;
64138;PMS5003;50435;43.700;-79.318;2024-02-28T12:10:04;24;24;
64138;PMS5003;50435;43.700;-79.318;2024-02-28T12:12:32;22;21;
64138;PMS5003;50435;43.700;-79.318;2024-02-28T12:15:00;26;26;
64138;PMS5003;50435;43.700;-79.318;2024-02-28T12:17:28;23;22;
64138;PMS5003;50435;43.700;-79.318;2024-02-28T12:19:55;26;24;
64138;PMS5003;50435;43.700;-79.318;2024-02-28T12:22:25;26;23;
64138;PMS5003;50435;43.700;-79.318;2024-02-28T12:24:52;25;22;
64138;PMS5003;50435;43.700;-79.318;2024-02-28T12:27:20;25;24;
64138;PMS5003;50435;43.700;-79.318;2024-02-28T12:29:48;30;27;
64138;PMS5003;50435;43.700;-79.318;2024-02-28T12:32:15;25;24;
64138;PMS5003;50435;43.700;-79.318;2024-02-28T12:34:43;25;24;
64138;PMS5003;50435;43.700;-79.318;2024-02-28T12:37:10;25;22;
64138;PMS5003;50435;43.700;-79.318;2024-02-28T12:39:37;26;24;
64138;PMS5003;50435;43.700;-79.318;2024-02-28T12:42:05;25;25;
64138;PMS5003;50435;43.700;-79.318;2024-02-28T12:44:34;30;30;
64138;PMS5003;50435;43.700;-79.318;2024-02-28T12:47:01;28;25;
64138;PMS5003;50435;43.700;-79.318;2024-02-28T12:49:29;30;29;
64138;PMS5003;50435;43.700;-79.318;2024-02-28T12:51:56;27;24;
64138;PMS5003;50435;43.700;-79.318;2024-02-28T12:54:24;23;23;
64138;PMS5003;50435;43.700;-79.318;2024-02-28T12:56:51;32;32;
64138;PMS5003;50435;43.700;-79.318;2024-02-28T12:59:19;28;24;
64138;PMS5003;50435;43.700;-79.318;2024-02-28T13:01:47;28;25;
64138;PMS5003;50435;43.700;-79.318;2024-02-28T13:04:14;29;26;
64138;PMS5003;50435;43.700;-79.318;2024-02-28T13:06:41;25;25;
64138;PMS5003;50435;43.700;-79.318;2024-02-28T13:09:09;25;24;
64138;PMS5003;50435;43.700;-79.318;2024-02-28T13:11:36;31;30;
64138;PMS5003;50435;43.700;-79.318;2024-02-28T13:14:03;28;27;
64138;PMS5003;50435;43.700;-79.318;2024-02-28T13:16:31;23;23;
64138;PMS5003;50435;43.700;-79.318;2024-02-28T13:18:58;28;26;
64138;PMS5003;50435;43.700;-79.318;2024-02-28T13:21:26;29;28;
64138;PMS5003;50435;43.700;-79.318;2024-02-28T13:23:53;30;26;
64138;PMS5003;50435;43.700;-79.318;2024-02-28T13:26:20;25;24;
64138;PMS5003;50435;43.700;-79.318;2024-02-28T13:28:48;29;28;
64138;PMS5003;50435;43.700;-79.318;2024-02-28T13:31:16;27;25;
64138;PMS5003;50435;43.700;-79.318;2024-02-28T13:33:43;27;26;
64138;PMS5003;50435;43.700;-79.318;2024-02-28T13:36:10;25;24;
64138;PMS5003;50435;43.700;-79.318;2024-02-28T13:38:38;23;23;
64138;PMS5003;50435;43.700;-79.318;2024-02-28T13:41:05;25;25;
64138;PMS5003;50435;43.700;-79.318;2024-02-28T13:43:32;26;24;
64138;PMS5003;50435;43.700;-79.318;2024-02-28T13:46:00;24;23;
64138;PMS5003;50435;43.700;-79.318;2024-02-28T13:48:28;24;23;
64138;PMS5003;50435;43.700;-79.318;2024-02-28T13:50:55;31;30;
64138;PMS5003;50435;43.700;-79.318;2024-02-28T13:53:23;26;26;
64138;PMS5003;50435;43.700;-79.318;2024-02-28T13:55:50;22;21;
64138;PMS5003;50435;43.700;-79.318;2024-02-28T13:58:17;29;28;
64138;PMS5003;50435;43.700;-79.318;2024-02-28T14:00:45;26;25;
64138;PMS5003;50435;43.700;-79.318;2024-02-28T14:03:13;23;22;
64138;PMS5003;50435;43.700;-79.318;2024-02-28T14:05:41;29;23;
64138;PMS5003;50435;43.700;-79.318;2024-02-28T14:08:09;25;24;
64138;PMS5003;50435;43.700;-79.318;2024-02-28T14:10:36;26;24;
64138;PMS5003;50435;43.700;-79.318;2024-02-28T14:13:04;26;24;
64138;PMS5003;50435;43.700;-79.318;2024-02-28T14:15:31;25;25;
64138;PMS5003;50435;43.700;-79.318;2024-02-28T14:17:59;24;23;
64138;PMS5003;50435;43.700;-79.318;2024-02-28T14:20:26;25;25;
64138;PMS5003;50435;43.700;-79.318;2024-02-28T14:22:53;26;26;
64138;PMS5003;50435;43.700;-79.318;2024-02-28T14:25:20;25;23;
64138;PMS5003;50435;43.700;-79.318;2024-02-28T14:27:48;28;25;
64138;PMS5003;50435;43.700;-79.318;2024-02-28T14:30:15;26;24;
64138;PMS5003;50435;43.700;-79.318;2024-02-28T14:32:43;30;28;
64138;PMS5003;50435;43.700;-79.318;2024-02-28T14:35:10;30;27;
64138;PMS5003;50435;43.700;-79.318;2024-02-28T14:37:39;32;28;
64138;PMS5003;50435;43.700;-79.318;2024-02-28T14:40:07;27;24;
64138;PMS5003;50435;43.700;-79.318;2024-02-28T14:42:36;28;23;
64138;PMS5003;50435;43.700;-79.318;2024-02-28T14:45:04;28;27;
64138;PMS5003;50435;43.700;-79.318;2024-02-28T14:47:33;25;22;
64138;PMS5003;50435;43.700;-79.318;2024-02-28T14:50:00;26;23;
64138;PMS5003;50435;43.700;-79.318;2024-02-28T14:52:28;24;22;
64138;PMS5003;50435;43.700;-79.318;2024-02-28T14:54:56;25;24;
64138;PMS5003;50435;43.700;-79.318;2024-02-28T14:57:23;26;24;
64138;PMS5003;50435;43.700;-79.318;2024-02-28T14:59:50;24;24;
64138;PMS5003;50435;43.700;-79.318;2024-02-28T15:02:18;28;25;
64138;PMS5003;50435;43.700;-79.318;2024-02-28T15:04:46;24;23;
64138;PMS5003;50435;43.700;-79.318;2024-02-28T15:07:14;22;20;
64138;PMS5003;50435;43.700;-79.318;2024-02-28T15:09:41;24;21;
64138;PMS5003;50435;43.700;-79.318;2024-02-28T15:12:09;26;22;
64138;PMS5003;50435;43.700;-79.318;2024-02-28T15:14:37;27;26;
64138;PMS5003;50435;43.700;-79.318;2024-02-28T15:17:04;21;20;
64138;PMS5003;50435;43.700;-79.318;2024-02-28T15:19:32;22;21;
64138;PMS5003;50435;43.700;-79.318;2024-02-28T15:21:59;23;22;
64138;PMS5003;50435;43.700;-79.318;2024-02-28T15:24:26;23;22;
64138;PMS5003;50435;43.700;-79.318;2024-02-28T15:26:54;24;21;
64138;PMS5003;50435;43.700;-79.318;2024-02-28T15:29:22;23;23;
64138;PMS5003;50435;43.700;-79.318;2024-02-28T15:31:49;19;19;
64138;PMS5003;50435;43.700;-79.318;2024-02-28T15:34:17;17;17;
64138;PMS5003;50435;43.700;-79.318;2024-02-28T15:36:45;21;21;
64138;PMS5003;50435;43.700;-79.318;2024-02-28T15:39:12;18;18;
64138;PMS5003;50435;43.700;-79.318;2024-02-28T15:41:40;18;18;
64138;PMS5003;50435;43.700;-79.318;2024-02-28T15:44:07;27;22;
64138;PMS5003;50435;43.700;-79.318;2024-02-28T15:46:35;18;18;
64138;PMS5003;50435;43.700;-79.318;2024-02-28T15:49:02;19;17;